Portada
METAR-TAF:

METAR-TAF

Aeroports :

Damasc, Síria

latitud: 33-25N, longitud: 036-31E, altitud: 608 m

Observació

L'informe es va fer fa 1 hora i 3 minuts, a les 19:00 UTC
Vent 18 kt del Oest/Sud-Oest
Temperatura 15°C
Humitat 59%
Pressió 1009 hPa
Visibilitat 10 km o més
sense núvols per sota de 1500 mi sense presència de cumulonimbus.

METAR: OSDI 201900Z 24018KT CAVOK 15/07 Q1009

Hora: 23:03 (20:03 UTC)

Pronòstic

L'informe es va fer fa 4 hores i 3 minuts, a les 16:00 UTC
Pronòstic vàlid del 20 a les 18 UTC al 21 a les 24 UTC
Vent 10 kt del Sud-Oest
Visibilitat 10 km o més
Escasses núvols a una alçada de 3000 ft
Temporalment
l' 20 a les 18 UTC al 21 a les 24 UTC
Vent 15 kt del Oest amb ràfegues de 25 kt
Visibilitat 10 km o més
Escasses núvols a una alçada de 3000 ft
Núvols disperses a una alçada de 10000 ft

TAF: OSDI 201600Z 2018/2124 22010KT 9999 FEW030 TEMPO 2018/2124 26015G25KT 9999 FEW030 SCT100

Observacions i pronòstics meteorològics de més de 4000 aeroports (METAR i TAF).

Les estacions disponibles són els punts grocs i vermells al mapa.

Posi el ratolí al punt desitjat per veure el nom de l'estació.

Feu clic per veure les observacions i els pronòstics meteorològics.

Per canviar el mapa: feu clic els botons verds amb una creu de color negre per apropar; al botó verd amb un guió per allunyar la imatge; o en les fletxes verdes per a mapes adjacents.


METAR-TAF: